createdAt,value
2022-11-17T00:02:47.929Z,7.70
2022-11-17T00:05:40.070Z,7.80
2022-11-17T00:08:33.191Z,7.70
2022-11-17T00:11:25.314Z,7.80
2022-11-17T00:14:32.649Z,7.80
2022-11-17T00:17:24.780Z,7.70
2022-11-17T00:20:35.550Z,7.70
2022-11-17T00:23:47.209Z,7.70
2022-11-17T00:26:59.592Z,7.70
2022-11-17T00:29:51.845Z,7.80
2022-11-17T00:33:02.694Z,7.70
2022-11-17T00:35:55.149Z,7.80
2022-11-17T00:38:47.270Z,7.70
2022-11-17T00:41:39.642Z,7.80
2022-11-17T00:44:32.077Z,7.80
2022-11-17T00:47:24.927Z,7.70
2022-11-17T00:50:17.127Z,7.70
2022-11-17T00:53:09.301Z,7.70
2022-11-17T00:56:01.681Z,7.70
2022-11-17T00:58:54.327Z,7.80
2022-11-17T01:01:46.981Z,7.80
2022-11-17T01:04:39.279Z,7.70
2022-11-17T01:07:31.443Z,7.70
2022-11-17T01:10:23.598Z,7.70
2022-11-17T01:13:17.786Z,7.80
2022-11-17T01:16:15.468Z,7.70
2022-11-17T01:19:07.683Z,7.80
2022-11-17T01:21:59.789Z,7.80
2022-11-17T01:24:51.896Z,7.70
2022-11-17T01:27:44.028Z,7.80
2022-11-17T01:30:36.136Z,7.90
2022-11-17T01:33:28.599Z,8.00
2022-11-17T01:36:27.398Z,8.10
2022-11-17T01:39:19.850Z,8.10
2022-11-17T01:42:15.663Z,8.10
2022-11-17T01:45:22.213Z,8.20
2022-11-17T01:48:15.389Z,8.10
2022-11-17T01:51:07.547Z,8.00
2022-11-17T01:54:00.216Z,8.10
2022-11-17T01:56:56.035Z,8.10
2022-11-17T02:00:04.856Z,8.10
2022-11-17T02:02:57.226Z,8.10
2022-11-17T02:05:57.660Z,8.10
2022-11-17T02:08:52.117Z,8.10
2022-11-17T02:11:44.879Z,8.00
2022-11-17T02:14:38.042Z,8.00
2022-11-17T02:17:38.572Z,8.00
2022-11-17T02:20:39.348Z,8.00
2022-11-17T02:23:50.484Z,8.00
2022-11-17T02:27:00.668Z,8.00
2022-11-17T02:30:06.201Z,8.00
2022-11-17T02:32:58.254Z,7.90
2022-11-17T02:36:11.811Z,8.00
2022-11-17T02:39:45.272Z,8.00
2022-11-17T02:43:01.221Z,8.00
2022-11-17T02:46:10.117Z,8.00
2022-11-17T02:49:07.115Z,8.00
2022-11-17T02:52:00.397Z,8.00
2022-11-17T02:54:52.525Z,8.00
2022-11-17T02:57:44.655Z,8.00
2022-11-17T03:00:40.912Z,8.00
2022-11-17T03:03:47.613Z,7.90
2022-11-17T03:06:54.806Z,7.90
2022-11-17T03:10:03.739Z,7.90
2022-11-17T03:13:02.211Z,7.80
2022-11-17T03:16:02.249Z,7.80
2022-11-17T03:19:00.483Z,7.70
2022-11-17T03:22:12.985Z,7.80
2022-11-17T03:25:11.331Z,7.80
2022-11-17T03:28:09.581Z,7.80
2022-11-17T03:31:07.110Z,7.80
2022-11-17T03:34:01.217Z,7.90
2022-11-17T03:36:58.550Z,7.90
2022-11-17T03:39:55.260Z,7.90
2022-11-17T03:42:53.884Z,7.90
2022-11-17T03:45:50.074Z,7.90
2022-11-17T03:48:48.967Z,7.90
2022-11-17T03:51:41.248Z,7.90
2022-11-17T03:54:35.283Z,7.90
2022-11-17T03:58:08.421Z,7.80
2022-11-17T04:01:03.384Z,7.80
2022-11-17T04:03:55.543Z,7.80
2022-11-17T04:06:50.063Z,7.80
2022-11-17T04:09:42.263Z,7.70
2022-11-17T04:12:53.249Z,7.70
2022-11-17T04:15:58.971Z,7.60
2022-11-17T04:18:54.483Z,7.60
2022-11-17T04:21:49.628Z,7.60
2022-11-17T04:24:41.734Z,7.60
2022-11-17T04:27:52.515Z,7.60
2022-11-17T04:30:44.597Z,7.60
2022-11-17T04:33:38.385Z,7.60
2022-11-17T04:36:36.273Z,7.60
2022-11-17T04:39:28.395Z,7.50
2022-11-17T04:42:20.506Z,7.50
2022-11-17T04:45:12.721Z,7.50
2022-11-17T04:48:04.900Z,7.50
2022-11-17T04:50:57.636Z,7.50
2022-11-17T04:53:50.253Z,7.50
2022-11-17T04:56:42.382Z,7.40
2022-11-17T04:59:34.506Z,7.30
2022-11-17T05:02:26.979Z,7.20
2022-11-17T05:05:19.130Z,7.30
2022-11-17T05:08:11.313Z,7.30
2022-11-17T05:11:22.574Z,7.30
2022-11-17T05:14:16.630Z,7.20
2022-11-17T05:17:11.602Z,7.20
2022-11-17T05:20:04.446Z,7.20
2022-11-17T05:23:15.052Z,7.30
2022-11-17T05:26:07.152Z,7.20
2022-11-17T05:29:01.639Z,7.20
2022-11-17T05:31:53.736Z,7.20
2022-11-17T05:34:45.984Z,7.30
2022-11-17T05:37:38.150Z,7.30
2022-11-17T05:40:30.378Z,7.30
2022-11-17T05:43:22.999Z,7.20
2022-11-17T05:46:15.109Z,7.20
2022-11-17T05:49:07.348Z,7.20
2022-11-17T05:51:59.520Z,7.20
2022-11-17T05:54:51.647Z,7.20
2022-11-17T05:57:44.282Z,7.20
2022-11-17T06:00:39.285Z,7.10
2022-11-17T06:03:42.107Z,7.10
2022-11-17T06:06:36.400Z,7.20
2022-11-17T06:09:32.999Z,7.20
2022-11-17T06:12:25.203Z,7.20
2022-11-17T06:15:17.712Z,7.20
2022-11-17T06:18:17.142Z,7.20
2022-11-17T06:21:10.721Z,7.20
2022-11-17T06:24:04.759Z,7.20
2022-11-17T06:26:56.952Z,7.30
2022-11-17T06:29:49.703Z,7.30
2022-11-17T06:32:43.900Z,7.30
2022-11-17T06:35:36.530Z,7.40
2022-11-17T06:38:29.397Z,7.50
2022-11-17T06:41:21.627Z,7.50
2022-11-17T06:44:13.804Z,7.60
2022-11-17T06:47:06.249Z,7.90
2022-11-17T06:49:58.398Z,8.20
2022-11-17T06:52:50.680Z,8.50
2022-11-17T06:55:42.935Z,8.70
2022-11-17T06:58:37.044Z,8.50
2022-11-17T07:01:29.500Z,8.30
2022-11-17T07:04:21.691Z,8.60
2022-11-17T07:07:14.026Z,9.60
2022-11-17T07:10:06.728Z,10.40
2022-11-17T07:12:59.161Z,11.10
2022-11-17T07:15:52.346Z,11.30
2022-11-17T07:18:44.579Z,11.30
2022-11-17T07:21:37.012Z,11.10
2022-11-17T07:24:29.243Z,10.40
2022-11-17T07:27:21.625Z,9.80
2022-11-17T07:30:14.379Z,9.30
2022-11-17T07:33:06.631Z,8.90
2022-11-17T07:36:10.756Z,8.70
2022-11-17T07:39:04.634Z,8.50
2022-11-17T07:41:56.851Z,8.50
2022-11-17T07:44:49.029Z,8.40
2022-11-17T07:47:41.165Z,8.30
2022-11-17T07:50:33.940Z,8.30
2022-11-17T07:53:26.208Z,8.30
2022-11-17T07:56:18.452Z,8.40
2022-11-17T07:59:10.691Z,8.30
2022-11-17T08:02:03.047Z,8.40
2022-11-17T08:04:55.293Z,8.60
2022-11-17T08:07:55.308Z,8.80
2022-11-17T08:10:47.453Z,8.80
2022-11-17T08:13:40.754Z,8.80
2022-11-17T08:16:33.304Z,8.90
2022-11-17T08:19:25.502Z,8.90
2022-11-17T08:22:17.736Z,8.90
2022-11-17T08:25:09.961Z,8.90
2022-11-17T08:28:02.177Z,8.80
2022-11-17T08:30:54.406Z,8.80
2022-11-17T08:33:46.597Z,8.90
2022-11-17T08:36:38.830Z,9.00
2022-11-17T08:39:31.063Z,8.90
2022-11-17T08:42:23.232Z,8.90
2022-11-17T08:45:15.559Z,9.00
2022-11-17T08:48:07.752Z,9.20
2022-11-17T08:51:05.742Z,9.20
2022-11-17T08:53:59.052Z,9.20
2022-11-17T08:56:51.351Z,9.20
2022-11-17T08:59:43.533Z,9.30
2022-11-17T09:02:36.950Z,9.40
2022-11-17T09:05:29.110Z,9.40
2022-11-17T09:11:33.447Z,9.50
2022-11-17T09:14:26.273Z,9.60
2022-11-17T09:17:18.442Z,9.70
2022-11-17T09:20:11.088Z,9.80
2022-11-17T09:23:03.289Z,9.80
2022-11-17T09:25:55.679Z,9.80
2022-11-17T09:28:48.964Z,9.80
2022-11-17T09:31:41.505Z,10.00
2022-11-17T09:34:33.695Z,10.10
2022-11-17T09:37:28.116Z,10.10
2022-11-17T09:40:21.097Z,10.20
2022-11-17T09:43:26.786Z,10.30
2022-11-17T09:46:25.627Z,10.30
2022-11-17T09:49:43.599Z,10.40
2022-11-17T09:53:09.595Z,10.50
2022-11-17T09:56:06.184Z,10.70
2022-11-17T09:59:12.824Z,10.90
2022-11-17T10:02:10.665Z,11.00
2022-11-17T10:05:03.013Z,11.10
2022-11-17T10:08:00.172Z,11.20
2022-11-17T10:10:52.486Z,11.40
2022-11-17T10:13:44.717Z,11.50
2022-11-17T10:16:38.782Z,11.50
2022-11-17T10:19:32.695Z,11.50
2022-11-17T10:22:37.383Z,11.40
2022-11-17T10:25:44.397Z,11.40
2022-11-17T10:28:36.673Z,11.40
2022-11-17T10:31:39.230Z,11.50
2022-11-17T10:34:41.330Z,11.70
2022-11-17T10:37:33.941Z,11.80
2022-11-17T10:40:31.997Z,11.80
2022-11-17T10:43:28.045Z,11.60
2022-11-17T10:46:20.388Z,11.50
2022-11-17T10:49:42.321Z,11.30
2022-11-17T10:52:34.454Z,11.40
2022-11-17T10:55:33.897Z,11.70
2022-11-17T10:58:32.208Z,11.80
2022-11-17T11:01:35.212Z,11.80
2022-11-17T11:04:32.393Z,11.60
2022-11-17T11:07:24.648Z,11.50
2022-11-17T11:10:24.110Z,11.40
2022-11-17T11:13:29.545Z,11.30
2022-11-17T11:16:21.752Z,11.20
2022-11-17T11:19:16.296Z,11.10
2022-11-17T11:22:23.738Z,11.20
2022-11-17T11:25:34.555Z,11.10
2022-11-17T11:28:26.549Z,11.10
2022-11-17T11:31:51.076Z,11.10
2022-11-17T11:34:52.112Z,10.80
2022-11-17T11:38:07.020Z,10.50
2022-11-17T11:41:36.375Z,10.40
2022-11-17T11:44:41.910Z,10.30
2022-11-17T11:47:48.711Z,10.20
2022-11-17T11:50:52.898Z,10.10
2022-11-17T11:54:11.685Z,10.10
2022-11-17T11:57:05.439Z,10.10
2022-11-17T12:00:05.154Z,10.10
2022-11-17T12:03:05.712Z,10.10
2022-11-17T12:06:42.162Z,10.10
2022-11-17T12:10:00.632Z,10.10
2022-11-17T12:12:52.894Z,10.10
2022-11-17T12:15:45.172Z,10.10
2022-11-17T12:18:37.336Z,10.10
2022-11-17T12:21:30.438Z,10.10
2022-11-17T12:24:40.431Z,10.10
2022-11-17T12:27:35.223Z,10.10
2022-11-17T12:30:38.656Z,10.10
2022-11-17T12:33:52.052Z,10.10
2022-11-17T12:37:16.623Z,10.20
2022-11-17T12:40:30.107Z,10.30
2022-11-17T12:43:27.709Z,10.40
2022-11-17T12:46:27.522Z,10.40
2022-11-17T12:49:35.435Z,10.50
2022-11-17T12:52:35.451Z,10.60
2022-11-17T12:55:39.319Z,10.70
2022-11-17T12:58:49.892Z,10.90
2022-11-17T13:02:04.079Z,11.00
2022-11-17T13:05:21.375Z,11.10
2022-11-17T13:08:24.148Z,11.40
2022-11-17T13:11:17.669Z,11.50
2022-11-17T13:14:14.000Z,11.50
2022-11-17T13:17:11.694Z,11.60
2022-11-17T13:20:29.863Z,11.50
2022-11-17T13:23:26.428Z,11.50
2022-11-17T13:26:35.730Z,11.50
2022-11-17T13:29:28.490Z,11.50
2022-11-17T13:32:24.048Z,11.50
2022-11-17T13:35:34.675Z,11.40
2022-11-17T13:38:26.810Z,11.40
2022-11-17T13:41:21.889Z,11.30
2022-11-17T13:44:25.633Z,11.30
2022-11-17T13:47:26.325Z,11.30
2022-11-17T13:50:27.758Z,11.20
2022-11-17T13:53:26.219Z,11.20
2022-11-17T13:56:29.908Z,11.10
2022-11-17T13:59:29.236Z,11.10
2022-11-17T14:02:24.533Z,11.10
2022-11-17T14:05:23.158Z,11.10
2022-11-17T14:08:29.388Z,11.10
2022-11-17T14:11:22.454Z,11.00
2022-11-17T14:14:19.407Z,11.00
2022-11-17T14:17:18.750Z,11.00
2022-11-17T14:20:26.124Z,11.00
2022-11-17T14:23:18.513Z,11.00
2022-11-17T14:26:17.166Z,10.90
2022-11-17T14:29:12.115Z,10.90
2022-11-17T14:32:04.308Z,10.90
2022-11-17T14:34:56.706Z,10.90
2022-11-17T14:37:48.867Z,10.80
2022-11-17T14:40:41.067Z,10.70
2022-11-17T14:43:33.322Z,10.70
2022-11-17T14:46:27.047Z,10.80
2022-11-17T14:49:19.201Z,10.80
2022-11-17T14:52:11.314Z,10.80
2022-11-17T14:55:03.582Z,10.80
2022-11-17T14:57:55.915Z,10.70
2022-11-17T15:00:48.205Z,10.70
2022-11-17T15:03:40.493Z,10.60
2022-11-17T15:06:33.571Z,10.50
2022-11-17T15:09:25.866Z,10.50
2022-11-17T15:12:18.014Z,10.40
2022-11-17T15:15:10.517Z,10.30
2022-11-17T15:18:02.681Z,10.30
2022-11-17T15:21:07.898Z,10.30
2022-11-17T15:24:02.031Z,10.20
2022-11-17T15:26:54.259Z,10.20
2022-11-17T15:29:46.471Z,10.10
2022-11-17T15:32:38.579Z,10.00
2022-11-17T15:35:30.788Z,10.00
2022-11-17T15:38:22.945Z,9.90
2022-11-17T15:41:16.142Z,9.80
2022-11-17T15:44:08.354Z,9.60
2022-11-17T15:47:00.527Z,9.40
2022-11-17T15:49:58.488Z,9.30
2022-11-17T15:53:04.184Z,9.40
2022-11-17T15:56:06.215Z,9.40
2022-11-17T15:59:03.273Z,9.20
2022-11-17T16:01:55.498Z,9.00
2022-11-17T16:04:47.744Z,8.80
2022-11-17T16:07:40.139Z,8.80
2022-11-17T16:10:32.439Z,8.70
2022-11-17T16:13:24.597Z,8.60
2022-11-17T16:16:19.004Z,8.50
2022-11-17T16:19:11.175Z,8.50
2022-11-17T16:22:03.469Z,8.50
2022-11-17T16:24:55.684Z,8.50
2022-11-17T16:27:47.932Z,8.40
2022-11-17T16:30:41.175Z,8.40
2022-11-17T16:33:33.369Z,8.40
2022-11-17T16:36:31.382Z,8.40
2022-11-17T16:39:26.624Z,8.40
2022-11-17T16:42:18.809Z,8.40
2022-11-17T16:45:11.272Z,8.40
2022-11-17T16:48:03.521Z,8.30
2022-11-17T16:50:55.675Z,8.40
2022-11-17T16:53:54.273Z,8.40
2022-11-17T16:56:47.483Z,8.40
2022-11-17T16:59:39.634Z,8.40
2022-11-17T17:02:33.246Z,8.40
2022-11-17T17:05:26.034Z,8.40
2022-11-17T17:08:18.170Z,8.40
2022-11-17T17:11:14.069Z,8.40
2022-11-17T17:14:08.584Z,8.50
2022-11-17T17:17:00.937Z,8.50
2022-11-17T17:19:53.192Z,8.40
2022-11-17T17:22:45.351Z,8.40
2022-11-17T17:25:37.500Z,8.40
2022-11-17T17:28:31.595Z,8.40
2022-11-17T17:31:25.289Z,8.50
2022-11-17T17:34:17.457Z,8.40
2022-11-17T17:37:09.627Z,8.50
2022-11-17T17:40:01.822Z,8.50
2022-11-17T17:42:54.659Z,8.50
2022-11-17T17:45:46.955Z,8.40
2022-11-17T17:48:41.388Z,8.40
2022-11-17T17:51:37.617Z,8.40
2022-11-17T17:54:29.809Z,8.20
2022-11-17T17:57:21.966Z,8.20
2022-11-17T18:00:14.618Z,8.20
2022-11-17T18:03:07.311Z,8.20
2022-11-17T18:06:01.033Z,8.20
2022-11-17T18:08:53.218Z,8.20
2022-11-17T18:11:50.342Z,8.20
2022-11-17T18:14:43.750Z,8.30
2022-11-17T18:17:35.983Z,8.30
2022-11-17T18:20:28.118Z,8.50
2022-11-17T18:23:20.269Z,8.60
2022-11-17T18:26:19.436Z,8.60
2022-11-17T18:29:18.247Z,8.80
2022-11-17T18:32:10.841Z,8.80
2022-11-17T18:35:02.998Z,8.90
2022-11-17T18:37:55.280Z,9.00
2022-11-17T18:40:47.468Z,9.00
2022-11-17T18:43:42.576Z,9.10
2022-11-17T18:46:34.804Z,9.20
2022-11-17T18:49:27.011Z,9.10
2022-11-17T18:52:19.150Z,9.00
2022-11-17T18:55:11.334Z,9.10
2022-11-17T18:58:03.489Z,9.20
2022-11-17T19:00:57.002Z,9.20
2022-11-17T19:03:52.198Z,9.20
2022-11-17T19:06:44.477Z,9.20
2022-11-17T19:09:36.587Z,9.20
2022-11-17T19:12:28.739Z,9.30
2022-11-17T19:15:21.061Z,9.30
2022-11-17T19:18:13.247Z,9.30
2022-11-17T19:21:40.712Z,9.20
2022-11-17T19:24:32.877Z,9.30
2022-11-17T19:27:25.023Z,9.30
2022-11-17T19:30:17.277Z,9.30
2022-11-17T19:33:09.512Z,9.20
2022-11-17T19:36:10.348Z,9.20
2022-11-17T19:39:03.505Z,9.20
2022-11-17T19:41:55.657Z,9.20
2022-11-17T19:44:47.924Z,9.30
2022-11-17T19:47:40.073Z,9.30
2022-11-17T19:50:33.743Z,9.30
2022-11-17T19:53:26.369Z,9.30
2022-11-17T19:56:19.264Z,9.40
2022-11-17T19:59:16.030Z,9.50
2022-11-17T20:02:11.928Z,9.50
2022-11-17T20:05:08.079Z,9.50
2022-11-17T20:08:03.169Z,9.40
2022-11-17T20:11:12.897Z,9.40
2022-11-17T20:14:05.202Z,9.30
2022-11-17T20:16:57.341Z,9.10
2022-11-17T20:19:49.499Z,9.10
2022-11-17T20:22:42.341Z,9.10
2022-11-17T20:25:37.974Z,9.20
2022-11-17T20:28:33.029Z,9.20
2022-11-17T20:31:27.956Z,9.30
2022-11-17T20:34:20.277Z,9.30
2022-11-17T20:37:12.443Z,9.40
2022-11-17T20:40:05.192Z,9.40
2022-11-17T20:42:57.688Z,9.40
2022-11-17T20:45:54.510Z,9.50
2022-11-17T20:48:47.170Z,9.50
2022-11-17T20:51:39.283Z,9.50
2022-11-17T20:54:31.449Z,9.50
2022-11-17T20:57:23.681Z,9.60
2022-11-17T21:00:16.356Z,9.50
2022-11-17T21:03:08.497Z,9.60
2022-11-17T21:06:04.831Z,9.60
2022-11-17T21:08:57.169Z,9.60
2022-11-17T21:11:58.079Z,9.60
2022-11-17T21:14:50.263Z,9.70
2022-11-17T21:18:01.028Z,9.70
2022-11-17T21:20:58.239Z,9.80
2022-11-17T21:23:56.483Z,9.70
2022-11-17T21:26:50.904Z,9.70
2022-11-17T21:29:43.075Z,9.70
2022-11-17T21:32:35.284Z,9.70
2022-11-17T21:35:27.454Z,9.60
2022-11-17T21:38:19.653Z,9.60
2022-11-17T21:41:17.437Z,9.50
2022-11-17T21:44:13.120Z,9.30
2022-11-17T21:47:05.285Z,9.20
2022-11-17T21:49:57.432Z,9.00
2022-11-17T21:52:49.573Z,8.90
2022-11-17T21:55:41.732Z,8.80
2022-11-17T21:58:34.510Z,8.60
2022-11-17T22:01:27.972Z,8.60
2022-11-17T22:04:20.221Z,8.60
2022-11-17T22:07:12.439Z,8.50
2022-11-17T22:10:05.438Z,8.40
2022-11-17T22:12:57.599Z,8.40
2022-11-17T22:15:49.758Z,8.40
2022-11-17T22:18:42.038Z,8.40
2022-11-17T22:21:36.452Z,8.40
2022-11-17T22:24:28.626Z,8.40
2022-11-17T22:27:22.217Z,8.30
2022-11-17T22:30:14.844Z,8.20
2022-11-17T22:33:06.984Z,8.10
2022-11-17T22:36:00.355Z,8.00
2022-11-17T22:38:52.976Z,7.90
2022-11-17T22:41:45.244Z,7.90
2022-11-17T22:44:37.360Z,7.90
2022-11-17T22:47:29.565Z,7.90
2022-11-17T22:50:21.726Z,7.80
2022-11-17T22:53:13.905Z,7.70
2022-11-17T22:56:09.284Z,7.80
2022-11-17T22:59:01.507Z,7.80
2022-11-17T23:01:54.423Z,7.70
2022-11-17T23:04:46.735Z,7.60
2022-11-17T23:07:38.967Z,7.50
2022-11-17T23:10:31.199Z,7.40
2022-11-17T23:13:23.399Z,7.20
2022-11-17T23:16:15.914Z,7.20
2022-11-17T23:19:11.180Z,7.20
2022-11-17T23:22:03.354Z,7.10
2022-11-17T23:24:55.545Z,7.10
2022-11-17T23:27:48.012Z,7.00
2022-11-17T23:30:40.172Z,6.90
2022-11-17T23:33:37.666Z,6.80
2022-11-17T23:36:30.254Z,6.70
2022-11-17T23:39:22.426Z,6.60
2022-11-17T23:42:14.586Z,6.50
2022-11-17T23:45:07.506Z,6.50
2022-11-17T23:47:59.672Z,6.50
2022-11-17T23:50:51.854Z,6.60
2022-11-17T23:53:44.110Z,6.60
2022-11-17T23:56:36.291Z,6.60
2022-11-17T23:59:28.468Z,6.60
